Time,TemperatureF,DewpointF,PressureIn,WindDirection,WindDirectionDegrees,WindSpeedMPH,WindSpeedGustMPH,Humidity,HourlyPrecipIn,Conditions,Clouds,dailyrainin,SoftwareType,DateUTC
2013-02-04 00:01:00,26.2,22.6,25.16,North,-999,0.0,3.1,86,0.00,,,-99.99,FreeWX 2.04,2013-02-04 07:01:00,
2013-02-04 00:06:00,25.9,22.3,25.16,North,-999,0.0,2.7,86,0.00,,,-99.99,FreeWX 2.04,2013-02-04 07:06:00,
2013-02-04 00:11:00,25.9,22.3,25.16,North,-999,0.0,2.7,86,0.00,,,-99.99,FreeWX 2.04,2013-02-04 07:11:00,
2013-02-04 00:16:00,25.9,22.6,25.16,North,-999,0.0,3.1,87,0.00,,,-99.99,FreeWX 2.04,2013-02-04 07:16:00,
2013-02-04 00:21:00,25.9,22.6,25.16,North,-999,0.0,0.0,87,0.00,,,-99.99,FreeWX 2.04,2013-02-04 07:21:00,
2013-02-04 00:26:00,25.9,22.6,25.16,North,-999,0.0,0.0,87,0.00,,,-99.99,FreeWX 2.04,2013-02-04 07:26:00,
2013-02-04 00:31:00,25.5,22.5,25.16,North,-999,0.0,0.0,88,0.00,,,-99.99,FreeWX 2.04,2013-02-04 07:31:00,
2013-02-04 00:36:00,25.7,22.6,25.16,North,-999,0.0,3.1,88,0.00,,,-99.99,FreeWX 2.04,2013-02-04 07:36:00,
2013-02-04 00:41:00,25.5,22.5,25.16,North,-999,0.0,3.1,88,0.00,,,-99.99,FreeWX 2.04,2013-02-04 07:41:00,
2013-02-04 00:46:00,26.1,23.0,25.16,North,-999,0.0,2.7,88,0.00,,,-99.99,FreeWX 2.04,2013-02-04 07:46:00,
2013-02-04 00:51:00,26.2,23.4,25.16,North,-999,0.0,3.1,89,0.00,,,-99.99,FreeWX 2.04,2013-02-04 07:51:00,
2013-02-04 00:56:00,26.1,23.4,25.16,North,-999,0.0,2.7,89,0.00,,,-99.99,FreeWX 2.04,2013-02-04 07:56:00,
2013-02-04 01:01:00,26.6,23.7,25.16,North,-999,0.0,2.7,89,0.00,,,-99.99,FreeWX 2.04,2013-02-04 08:01:00,
2013-02-04 01:06:00,27.3,24.4,25.16,West,263,1.0,3.6,89,0.00,,,-99.99,FreeWX 2.04,2013-02-04 08:06:00,
2013-02-04 01:11:00,26.4,23.4,25.16,West,265,1.0,4.9,88,0.00,,,-99.99,FreeWX 2.04,2013-02-04 08:11:00,
2013-02-04 01:16:00,25.7,22.1,25.16,NW,310,3.0,5.8,86,0.00,,,-99.99,FreeWX 2.04,2013-02-04 08:16:00,
2013-02-04 01:21:00,25.7,22.1,25.16,North,354,4.0,5.4,86,0.00,,,-99.99,FreeWX 2.04,2013-02-04 08:21:00,
2013-02-04 01:26:00,27.1,23.5,25.16,North,358,4.0,6.3,86,0.00,,,-99.99,FreeWX 2.04,2013-02-04 08:26:00,
2013-02-04 01:31:00,27.3,23.7,25.16,North,3,4.0,5.8,86,0.00,,,-99.99,FreeWX 2.04,2013-02-04 08:31:00,
2013-02-04 01:36:00,27.0,23.0,25.16,North,5,3.0,4.9,85,0.00,,,-99.99,FreeWX 2.04,2013-02-04 08:36:00,
2013-02-04 01:41:00,25.9,21.4,25.16,North,5,2.0,4.0,83,0.00,,,-99.99,FreeWX 2.04,2013-02-04 08:41:00,
2013-02-04 01:46:00,26.1,21.6,25.16,North,5,2.0,3.6,83,0.00,,,-99.99,FreeWX 2.04,2013-02-04 08:46:00,
2013-02-04 01:51:00,25.7,21.6,25.16,North,5,2.0,4.5,84,0.00,,,-99.99,FreeWX 2.04,2013-02-04 08:51:00,
2013-02-04 01:56:00,25.0,20.5,25.16,North,5,2.0,3.6,83,0.00,,,-99.99,FreeWX 2.04,2013-02-04 08:56:00,
2013-02-04 02:01:00,24.8,20.3,25.16,North,5,1.0,2.7,83,0.00,,,-99.99,FreeWX 2.04,2013-02-04 09:01:00,
2013-02-04 02:06:00,25.5,21.4,25.16,North,-999,0.0,2.7,84,0.00,,,-99.99,FreeWX 2.04,2013-02-04 09:06:00,
2013-02-04 02:11:00,25.9,21.7,25.16,North,-999,0.0,0.0,84,0.00,,,-99.99,FreeWX 2.04,2013-02-04 09:11:00,
2013-02-04 02:16:00,25.9,21.7,25.16,North,-999,0.0,0.0,84,0.00,,,-99.99,FreeWX 2.04,2013-02-04 09:16:00,
2013-02-04 02:21:00,25.9,21.7,25.16,North,-999,0.0,0.0,84,0.00,,,-99.99,FreeWX 2.04,2013-02-04 09:21:00,
2013-02-04 02:26:00,26.1,21.9,25.16,North,-999,0.0,0.0,84,0.00,,,-99.99,FreeWX 2.04,2013-02-04 09:26:00,
2013-02-04 02:31:00,25.5,21.0,25.16,North,-999,0.0,0.0,83,0.00,,,-99.99,FreeWX 2.04,2013-02-04 09:31:00,
2013-02-04 02:36:00,25.3,20.7,25.16,North,-999,0.0,0.0,82,0.00,,,-99.99,FreeWX 2.04,2013-02-04 09:36:00,
2013-02-04 02:41:00,25.3,20.7,25.16,North,-999,0.0,0.0,82,0.00,,,-99.99,FreeWX 2.04,2013-02-04 09:41:00,
2013-02-04 02:46:00,25.5,20.8,25.16,North,-999,0.0,0.0,82,0.00,,,-99.99,FreeWX 2.04,2013-02-04 09:46:00,
2013-02-04 02:51:00,25.7,21.0,25.16,North,-999,0.0,0.0,82,0.00,,,-99.99,FreeWX 2.04,2013-02-04 09:51:00,
2013-02-04 02:56:00,25.7,21.0,25.16,North,-999,0.0,0.0,82,0.00,,,-99.99,FreeWX 2.04,2013-02-04 09:56:00,
2013-02-04 03:01:00,26.1,21.4,25.16,North,-999,0.0,0.0,82,0.00,,,-99.99,FreeWX 2.04,2013-02-04 10:01:00,
2013-02-04 03:06:00,26.1,21.0,25.16,North,-999,0.0,3.6,81,0.00,,,-99.99,FreeWX 2.04,2013-02-04 10:06:00,
2013-02-04 03:11:00,26.4,21.4,25.16,North,-999,0.0,5.8,81,0.00,,,-99.99,FreeWX 2.04,2013-02-04 10:11:00,
2013-02-04 03:16:00,25.5,20.5,25.16,North,6,2.0,5.4,81,0.00,,,-99.99,FreeWX 2.04,2013-02-04 10:16:00,
2013-02-04 03:21:00,26.1,20.8,25.16,North,6,3.0,4.0,80,0.00,,,-99.99,FreeWX 2.04,2013-02-04 10:21:00,
2013-02-04 03:26:00,25.9,20.3,25.16,North,6,2.0,4.5,79,0.00,,,-99.99,FreeWX 2.04,2013-02-04 10:26:00,
2013-02-04 03:31:00,25.3,19.4,25.16,North,6,1.0,3.1,78,0.00,,,-99.99,FreeWX 2.04,2013-02-04 10:31:00,
2013-02-04 03:36:00,24.8,18.9,25.16,North,-999,0.0,3.1,78,0.00,,,-99.99,FreeWX 2.04,2013-02-04 10:36:00,
2013-02-04 03:41:00,24.4,18.5,25.16,North,-999,0.0,2.7,78,0.00,,,-99.99,FreeWX 2.04,2013-02-04 10:41:00,
2013-02-04 03:46:00,24.1,18.3,25.16,North,-999,0.0,0.0,78,0.00,,,-99.99,FreeWX 2.04,2013-02-04 10:46:00,
2013-02-04 03:51:00,24.6,19.0,25.16,North,-999,0.0,2.7,79,0.00,,,-99.99,FreeWX 2.04,2013-02-04 10:51:00,
2013-02-04 03:56:00,25.2,19.9,25.16,North,-999,0.0,0.0,80,0.00,,,-99.99,FreeWX 2.04,2013-02-04 10:56:00,
2013-02-04 04:01:00,25.3,20.1,25.16,North,-999,0.0,0.0,80,0.00,,,-99.99,FreeWX 2.04,2013-02-04 11:01:00,
2013-02-04 04:06:00,25.2,19.6,25.16,North,-999,0.0,0.0,79,0.00,,,-99.99,FreeWX 2.04,2013-02-04 11:06:00,
2013-02-04 04:11:00,25.2,19.6,25.16,North,-999,0.0,0.0,79,0.00,,,-99.99,FreeWX 2.04,2013-02-04 11:11:00,
2013-02-04 04:16:00,25.0,19.4,25.16,North,-999,0.0,0.0,79,0.00,,,-99.99,FreeWX 2.04,2013-02-04 11:16:00,
2013-02-04 04:21:00,24.8,19.2,25.16,North,-999,0.0,3.1,79,0.00,,,-99.99,FreeWX 2.04,2013-02-04 11:21:00,
2013-02-04 04:26:00,25.0,19.4,25.16,North,-999,0.0,0.0,79,0.00,,,-99.99,FreeWX 2.04,2013-02-04 11:26:00,
2013-02-04 04:31:00,25.5,20.3,25.16,North,-999,0.0,0.0,80,0.00,,,-99.99,FreeWX 2.04,2013-02-04 11:31:00,
2013-02-04 04:37:00,25.5,19.9,25.16,North,-999,0.0,3.6,79,0.00,,,-99.99,FreeWX 2.04,2013-02-04 11:37:00,
2013-02-04 04:42:00,25.7,19.8,25.16,North,6,1.0,3.6,78,0.00,,,-99.99,FreeWX 2.04,2013-02-04 11:42:00,
2013-02-04 04:47:00,25.5,19.9,25.16,North,6,1.0,4.0,79,0.00,,,-99.99,FreeWX 2.04,2013-02-04 11:47:00,
2013-02-04 04:52:00,25.2,19.2,25.16,North,6,1.0,2.7,78,0.00,,,-99.99,FreeWX 2.04,2013-02-04 11:52:00,
2013-02-04 04:57:00,24.8,18.9,25.16,North,-999,0.0,0.0,78,0.00,,,-99.99,FreeWX 2.04,2013-02-04 11:57:00,
2013-02-04 05:02:00,24.1,18.0,25.16,North,-999,0.0,3.1,77,0.00,,,-99.99,FreeWX 2.04,2013-02-04 12:02:00,
2013-02-04 05:07:00,24.1,18.0,25.16,North,-999,0.0,0.0,77,0.00,,,-99.99,FreeWX 2.04,2013-02-04 12:07:00,
2013-02-04 05:12:00,23.9,18.1,25.16,North,-999,0.0,2.7,78,0.00,,,-99.99,FreeWX 2.04,2013-02-04 12:12:00,
2013-02-04 05:17:00,24.1,18.3,25.16,North,-999,0.0,0.0,78,0.00,,,-99.99,FreeWX 2.04,2013-02-04 12:17:00,
2013-02-04 05:22:00,24.1,18.5,25.16,North,-999,0.0,2.7,79,0.00,,,-99.99,FreeWX 2.04,2013-02-04 12:22:00,
2013-02-04 05:27:00,24.3,18.7,25.16,North,-999,0.0,0.0,79,0.00,,,-99.99,FreeWX 2.04,2013-02-04 12:27:00,
2013-02-04 05:32:00,25.0,19.8,25.16,North,-999,0.0,2.7,80,0.00,,,-99.99,FreeWX 2.04,2013-02-04 12:32:00,
2013-02-04 05:37:00,24.6,19.0,25.16,North,6,1.0,4.9,79,0.00,,,-99.99,FreeWX 2.04,2013-02-04 12:37:00,
2013-02-04 05:42:00,24.8,18.9,25.16,North,6,3.0,4.9,78,0.00,,,-99.99,FreeWX 2.04,2013-02-04 12:42:00,
2013-02-04 05:47:00,25.3,19.8,25.16,North,6,2.0,4.0,79,0.00,,,-99.99,FreeWX 2.04,2013-02-04 12:47:00,
2013-02-04 05:52:00,24.6,18.7,25.16,North,-999,0.0,0.0,78,0.00,,,-99.99,FreeWX 2.04,2013-02-04 12:52:00,
2013-02-04 05:57:00,24.3,18.1,25.16,North,-999,0.0,2.7,77,0.00,,,-99.99,FreeWX 2.04,2013-02-04 12:57:00,
2013-02-04 06:02:00,23.9,18.1,25.16,North,-999,0.0,0.0,78,0.00,,,-99.99,FreeWX 2.04,2013-02-04 13:02:00,
2013-02-04 06:07:00,23.9,18.1,25.16,North,-999,0.0,0.0,78,0.00,,,-99.99,FreeWX 2.04,2013-02-04 13:07:00,
2013-02-04 06:12:00,24.8,19.2,25.16,North,-999,0.0,0.0,79,0.00,,,-99.99,FreeWX 2.04,2013-02-04 13:12:00,
2013-02-04 06:17:00,24.6,19.0,25.16,North,-999,0.0,0.0,79,0.00,,,-99.99,FreeWX 2.04,2013-02-04 13:17:00,
2013-02-04 06:22:00,24.8,19.2,25.16,North,-999,0.0,0.0,79,0.00,,,-99.99,FreeWX 2.04,2013-02-04 13:22:00,
2013-02-04 06:27:00,24.6,19.0,25.16,North,-999,0.0,0.0,79,0.00,,,-99.99,FreeWX 2.04,2013-02-04 13:27:00,
2013-02-04 06:32:00,24.1,18.5,25.16,North,-999,0.0,3.1,79,0.00,,,-99.99,FreeWX 2.04,2013-02-04 13:32:00,
2013-02-04 06:37:00,24.3,18.3,25.16,North,6,1.0,4.0,78,0.00,,,-99.99,FreeWX 2.04,2013-02-04 13:37:00,
2013-02-04 06:42:00,24.6,19.0,25.16,North,6,1.0,3.6,79,0.00,,,-99.99,FreeWX 2.04,2013-02-04 13:42:00,
2013-02-04 06:47:00,25.5,19.9,25.16,North,6,1.0,3.6,79,0.00,,,-99.99,FreeWX 2.04,2013-02-04 13:47:00,
2013-02-04 06:52:00,25.9,20.3,25.16,North,6,2.0,4.0,79,0.00,,,-99.99,FreeWX 2.04,2013-02-04 13:52:00,
2013-02-04 06:57:00,24.6,18.7,25.16,North,6,1.0,3.1,78,0.00,,,-99.99,FreeWX 2.04,2013-02-04 13:57:00,
2013-02-04 07:02:00,24.8,18.7,25.16,North,6,1.0,4.9,77,0.00,,,-99.99,FreeWX 2.04,2013-02-04 14:02:00,
2013-02-04 07:07:00,24.6,18.7,25.16,North,6,1.0,3.6,78,0.00,,,-99.99,FreeWX 2.04,2013-02-04 14:07:00,
2013-02-04 07:12:00,24.1,18.0,25.16,North,6,1.0,4.0,77,0.00,,,-99.99,FreeWX 2.04,2013-02-04 14:12:00,
2013-02-04 07:17:00,23.5,17.1,25.19,North,6,1.0,3.1,76,0.00,,,-99.99,FreeWX 2.04,2013-02-04 14:17:00,
2013-02-04 07:22:00,24.1,18.0,25.19,North,-999,0.0,3.1,77,0.00,,,-99.99,FreeWX 2.04,2013-02-04 14:22:00,
2013-02-04 07:27:00,24.3,18.3,25.19,North,6,1.0,3.6,78,0.00,,,-99.99,FreeWX 2.04,2013-02-04 14:27:00,
2013-02-04 07:32:00,24.3,18.3,25.19,North,-999,0.0,3.1,78,0.00,,,-99.99,FreeWX 2.04,2013-02-04 14:32:00,
2013-02-04 07:37:00,24.3,18.3,25.19,North,6,2.0,5.8,78,0.00,,,-99.99,FreeWX 2.04,2013-02-04 14:37:00,
2013-02-04 07:42:00,24.4,18.5,25.19,North,9,4.0,6.7,78,0.00,,,-99.99,FreeWX 2.04,2013-02-04 14:42:00,
2013-02-04 07:47:00,24.8,18.9,25.19,NNE,15,4.0,5.4,78,0.00,,,-99.99,FreeWX 2.04,2013-02-04 14:47:00,
2013-02-04 07:52:00,25.3,19.4,25.19,NNE,18,4.0,4.9,78,0.00,,,-99.99,FreeWX 2.04,2013-02-04 14:52:00,
2013-02-04 07:57:00,26.4,20.1,25.19,NNE,18,4.0,4.9,77,0.00,,,-99.99,FreeWX 2.04,2013-02-04 14:57:00,
2013-02-04 08:02:00,26.8,20.3,25.19,NNE,18,4.0,4.9,76,0.00,,,-99.99,FreeWX 2.04,2013-02-04 15:02:00,
2013-02-04 08:07:00,27.1,20.3,25.19,NNE,18,4.0,6.3,75,0.00,,,-99.99,FreeWX 2.04,2013-02-04 15:07:00,
2013-02-04 08:12:00,27.9,20.7,25.19,NNE,18,3.0,4.5,74,0.00,,,-99.99,FreeWX 2.04,2013-02-04 15:12:00,
2013-02-04 08:17:00,29.3,22.1,25.19,NNE,18,3.0,4.0,74,0.00,,,-99.99,FreeWX 2.04,2013-02-04 15:17:00,
2013-02-04 08:22:00,30.4,22.8,25.19,NNE,18,2.0,3.6,73,0.00,,,-99.99,FreeWX 2.04,2013-02-04 15:22:00,
2013-02-04 08:27:00,30.4,22.1,25.19,NNE,18,2.0,4.5,71,0.00,,,-99.99,FreeWX 2.04,2013-02-04 15:27:00,
2013-02-04 08:32:00,30.2,21.2,25.19,NNE,18,4.0,4.9,69,0.00,,,-99.99,FreeWX 2.04,2013-02-04 15:32:00,
2013-02-04 08:37:00,31.1,21.4,25.19,North,9,4.0,5.8,67,0.00,,,-99.99,FreeWX 2.04,2013-02-04 15:37:00,
2013-02-04 08:42:00,31.5,20.3,25.19,North,352,4.0,4.9,63,0.00,,,-99.99,FreeWX 2.04,2013-02-04 15:42:00,
2013-02-04 08:47:00,31.3,18.7,25.19,NNW,333,4.0,5.4,59,0.00,,,-99.99,FreeWX 2.04,2013-02-04 15:47:00,
2013-02-04 08:52:00,31.3,18.3,25.19,NW,325,3.0,4.5,58,0.00,,,-99.99,FreeWX 2.04,2013-02-04 15:52:00,
2013-02-04 08:57:00,32.2,19.0,25.19,NNW,329,2.0,4.0,58,0.00,,,-99.99,FreeWX 2.04,2013-02-04 15:57:00,
2013-02-04 09:02:00,32.7,19.6,25.19,NNW,330,1.0,4.5,58,0.00,,,-99.99,FreeWX 2.04,2013-02-04 16:02:00,
2013-02-04 09:07:00,32.7,19.6,25.19,NNW,336,1.0,5.8,58,0.00,,,-99.99,FreeWX 2.04,2013-02-04 16:07:00,
2013-02-04 09:12:00,32.7,18.9,25.19,NNW,331,2.0,5.8,56,0.00,,,-99.99,FreeWX 2.04,2013-02-04 16:12:00,
2013-02-04 09:17:00,32.5,18.1,25.19,NW,312,3.0,6.7,55,0.00,,,-99.99,FreeWX 2.04,2013-02-04 16:17:00,
2013-02-04 09:22:00,31.1,16.3,25.19,NW,318,4.0,7.4,54,0.00,,,-99.99,FreeWX 2.04,2013-02-04 16:22:00,
2013-02-04 09:27:00,31.1,16.3,25.19,NNW,337,4.0,7.4,54,0.00,,,-99.99,FreeWX 2.04,2013-02-04 16:27:00,
2013-02-04 09:32:00,32.2,17.8,25.19,NNW,343,4.0,5.8,55,0.00,,,-99.99,FreeWX 2.04,2013-02-04 16:32:00,
2013-02-04 09:37:00,32.5,18.1,25.19,North,357,3.0,6.3,55,0.00,,,-99.99,FreeWX 2.04,2013-02-04 16:37:00,
2013-02-04 09:42:00,32.9,18.1,25.19,North,4,4.0,6.3,54,0.00,,,-99.99,FreeWX 2.04,2013-02-04 16:42:00,
2013-02-04 09:47:00,33.3,18.5,25.19,North,357,4.0,6.7,54,0.00,,,-99.99,FreeWX 2.04,2013-02-04 16:47:00,
2013-02-04 09:52:00,32.9,18.1,25.19,North,10,5.0,8.3,54,0.00,,,-99.99,FreeWX 2.04,2013-02-04 16:52:00,
2013-02-04 09:58:00,33.1,18.7,25.19,NNE,30,5.0,6.9,55,0.00,,,-99.99,FreeWX 2.04,2013-02-04 16:58:00,
2013-02-04 10:03:00,33.4,19.0,25.19,NNE,32,4.0,6.9,55,0.00,,,-99.99,FreeWX 2.04,2013-02-04 17:03:00,
2013-02-04 10:08:00,33.8,19.4,25.19,NNE,28,4.0,7.4,55,0.00,,,-99.99,FreeWX 2.04,2013-02-04 17:08:00,
2013-02-04 10:13:00,34.5,20.1,25.19,NNE,19,4.0,6.9,55,0.00,,,-99.99,FreeWX 2.04,2013-02-04 17:13:00,
2013-02-04 10:18:00,34.7,19.4,25.19,North,10,4.0,6.7,53,0.00,,,-99.99,FreeWX 2.04,2013-02-04 17:18:00,
2013-02-04 10:23:00,34.5,19.2,25.19,North,5,4.0,6.7,53,0.00,,,-99.99,FreeWX 2.04,2013-02-04 17:23:00,
2013-02-04 10:28:00,34.3,19.0,25.19,North,1,4.0,7.4,53,0.00,,,-99.99,FreeWX 2.04,2013-02-04 17:28:00,
2013-02-04 10:33:00,34.3,19.0,25.19,North,354,4.0,7.4,53,0.00,,,-99.99,FreeWX 2.04,2013-02-04 17:33:00,
2013-02-04 10:38:00,34.9,19.6,25.19,North,354,4.0,7.4,53,0.00,,,-99.99,FreeWX 2.04,2013-02-04 17:38:00,
2013-02-04 10:43:00,34.0,19.0,25.19,North,5,5.0,8.3,54,0.00,,,-99.99,FreeWX 2.04,2013-02-04 17:43:00,
2013-02-04 10:48:00,34.2,19.2,25.19,North,358,4.0,5.8,54,0.00,,,-99.99,FreeWX 2.04,2013-02-04 17:48:00,
2013-02-04 10:53:00,35.1,20.1,25.19,NNW,347,4.0,6.9,54,0.00,,,-99.99,FreeWX 2.04,2013-02-04 17:53:00,
2013-02-04 10:58:00,35.4,20.5,25.19,North,350,4.0,6.7,54,0.00,,,-99.99,FreeWX 2.04,2013-02-04 17:58:00,
2013-02-04 11:03:00,35.4,19.9,25.19,NNW,347,4.0,5.8,53,0.00,,,-99.99,FreeWX 2.04,2013-02-04 18:03:00,
2013-02-04 11:08:00,36.1,20.3,25.19,NNW,327,4.0,6.3,52,0.00,,,-99.99,FreeWX 2.04,2013-02-04 18:08:00,
2013-02-04 11:13:00,36.3,19.9,25.19,North,352,3.0,6.7,51,0.00,,,-99.99,FreeWX 2.04,2013-02-04 18:13:00,
2013-02-04 11:18:00,36.0,19.6,25.19,NNE,31,4.0,6.7,51,0.00,,,-99.99,FreeWX 2.04,2013-02-04 18:18:00,
2013-02-04 11:23:00,36.9,20.5,25.19,NNE,26,2.0,4.9,51,0.00,,,-99.99,FreeWX 2.04,2013-02-04 18:23:00,
2013-02-04 11:28:00,37.0,20.1,25.19,NNE,24,2.0,4.9,50,0.00,,,-99.99,FreeWX 2.04,2013-02-04 18:28:00,
2013-02-04 11:33:00,37.4,21.0,25.19,NNE,20,3.0,6.7,51,0.00,,,-99.99,FreeWX 2.04,2013-02-04 18:33:00,
2013-02-04 11:38:00,37.0,19.8,25.19,NNW,333,3.0,5.8,49,0.00,,,-99.99,FreeWX 2.04,2013-02-04 18:38:00,
2013-02-04 11:43:00,38.1,21.2,25.19,West,276,2.0,4.9,50,0.00,,,-99.99,FreeWX 2.04,2013-02-04 18:43:00,
2013-02-04 11:48:00,38.5,19.9,25.19,West,264,1.0,4.9,47,0.00,,,-99.99,FreeWX 2.04,2013-02-04 18:48:00,
2013-02-04 11:53:00,37.6,18.7,25.19,WNW,292,3.0,7.8,46,0.00,,,-99.99,FreeWX 2.04,2013-02-04 18:53:00,
2013-02-04 11:58:00,37.9,18.5,25.19,NNW,348,4.0,4.5,45,0.00,,,-99.99,FreeWX 2.04,2013-02-04 18:58:00,
2013-02-04 12:03:00,38.5,19.6,25.16,North,358,3.0,5.4,46,0.00,,,-99.99,FreeWX 2.04,2013-02-04 19:03:00,
2013-02-04 12:08:00,37.9,19.0,25.16,NW,310,4.0,6.7,46,0.00,,,-99.99,FreeWX 2.04,2013-02-04 19:08:00,
2013-02-04 12:13:00,38.3,19.4,25.16,WSW,239,4.0,5.4,46,0.00,,,-99.99,FreeWX 2.04,2013-02-04 19:13:00,
2013-02-04 12:18:00,38.5,19.0,25.16,South,177,4.0,7.4,45,0.00,,,-99.99,FreeWX 2.04,2013-02-04 19:18:00,
2013-02-04 12:23:00,39.2,19.6,25.16,ESE,112,4.0,5.8,45,0.00,,,-99.99,FreeWX 2.04,2013-02-04 19:23:00,
2013-02-04 12:28:00,39.4,19.8,25.16,ESE,106,3.0,4.0,45,0.00,,,-99.99,FreeWX 2.04,2013-02-04 19:28:00,
2013-02-04 12:33:00,39.7,20.7,25.16,SE,125,3.0,6.9,46,0.00,,,-99.99,FreeWX 2.04,2013-02-04 19:33:00,
2013-02-04 12:38:00,38.8,19.4,25.16,SSW,193,5.0,8.3,45,0.00,,,-99.99,FreeWX 2.04,2013-02-04 19:38:00,
2013-02-04 12:43:00,39.9,20.8,25.16,WSW,237,4.0,7.4,46,0.00,,,-99.99,FreeWX 2.04,2013-02-04 19:43:00,
2013-02-04 12:48:00,39.4,19.2,25.16,WSW,249,4.0,10.1,44,0.00,,,-99.99,FreeWX 2.04,2013-02-04 19:48:00,
2013-02-04 12:53:00,39.2,20.1,25.16,WSW,255,6.0,8.7,46,0.00,,,-99.99,FreeWX 2.04,2013-02-04 19:53:00,
2013-02-04 12:58:00,39.9,19.8,25.16,West,264,4.0,6.9,44,0.00,,,-99.99,FreeWX 2.04,2013-02-04 19:58:00,
2013-02-04 13:03:00,40.1,18.9,25.16,West,266,2.0,4.9,42,0.00,,,-99.99,FreeWX 2.04,2013-02-04 20:03:00,
2013-02-04 13:08:00,40.1,19.4,25.16,West,266,2.0,5.4,43,0.00,,,-99.99,FreeWX 2.04,2013-02-04 20:08:00,
2013-02-04 13:13:00,40.5,19.2,25.16,WSW,248,3.0,7.4,42,0.00,,,-99.99,FreeWX 2.04,2013-02-04 20:13:00,
2013-02-04 13:18:00,40.5,19.8,25.13,SW,227,4.0,6.9,43,0.00,,,-99.99,FreeWX 2.04,2013-02-04 20:18:00,
2013-02-04 13:23:00,41.2,19.8,25.13,SSW,198,4.0,5.8,42,0.00,,,-99.99,FreeWX 2.04,2013-02-04 20:23:00,
2013-02-04 13:28:00,41.0,19.8,25.13,South,181,4.0,6.9,42,0.00,,,-99.99,FreeWX 2.04,2013-02-04 20:28:00,
2013-02-04 13:33:00,41.2,20.5,25.13,SSW,201,3.0,5.8,43,0.00,,,-99.99,FreeWX 2.04,2013-02-04 20:33:00,
2013-02-04 13:38:00,41.0,20.3,25.13,SW,215,4.0,8.7,43,0.00,,,-99.99,FreeWX 2.04,2013-02-04 20:38:00,
2013-02-04 13:43:00,40.8,20.1,25.13,SW,226,5.0,8.7,43,0.00,,,-99.99,FreeWX 2.04,2013-02-04 20:43:00,
2013-02-04 13:48:00,41.2,21.4,25.13,SW,216,5.0,9.2,45,0.00,,,-99.99,FreeWX 2.04,2013-02-04 20:48:00,
2013-02-04 13:53:00,40.6,19.9,25.13,SW,222,6.0,10.1,43,0.00,,,-99.99,FreeWX 2.04,2013-02-04 20:53:00,
2013-02-04 13:58:00,41.2,21.9,25.13,SW,236,6.0,9.6,46,0.00,,,-99.99,FreeWX 2.04,2013-02-04 20:58:00,
2013-02-04 14:03:00,40.8,20.1,25.13,SSW,200,6.0,9.2,43,0.00,,,-99.99,FreeWX 2.04,2013-02-04 21:03:00,
2013-02-04 14:08:00,41.2,21.4,25.13,South,170,6.0,10.5,45,0.00,,,-99.99,FreeWX 2.04,2013-02-04 21:08:00,
2013-02-04 14:13:00,41.2,21.4,25.13,South,181,6.0,9.2,45,0.00,,,-99.99,FreeWX 2.04,2013-02-04 21:13:00,
2013-02-04 14:18:00,41.2,21.9,25.13,SSW,194,6.0,11.0,46,0.00,,,-99.99,FreeWX 2.04,2013-02-04 21:18:00,
2013-02-04 14:23:00,41.5,22.3,25.13,SSW,193,6.0,10.5,46,0.00,,,-99.99,FreeWX 2.04,2013-02-04 21:23:00,
2013-02-04 14:28:00,40.3,19.6,25.13,South,188,7.0,11.0,43,0.00,,,-99.99,FreeWX 2.04,2013-02-04 21:28:00,
2013-02-04 14:33:00,40.5,20.8,25.13,South,180,6.0,8.3,45,0.00,,,-99.99,FreeWX 2.04,2013-02-04 21:33:00,
2013-02-04 14:38:00,40.6,21.0,25.13,South,177,6.0,9.6,45,0.00,,,-99.99,FreeWX 2.04,2013-02-04 21:38:00,
2013-02-04 14:43:00,40.5,20.8,25.13,South,182,7.0,11.6,45,0.00,,,-99.99,FreeWX 2.04,2013-02-04 21:43:00,
2013-02-04 14:48:00,40.3,21.7,25.13,South,176,8.0,11.0,47,0.00,,,-99.99,FreeWX 2.04,2013-02-04 21:48:00,
2013-02-04 14:53:00,40.3,20.1,25.13,South,180,8.0,11.6,44,0.00,,,-99.99,FreeWX 2.04,2013-02-04 21:53:00,
2013-02-04 14:58:00,40.5,21.9,25.13,SSW,197,7.0,9.2,47,0.00,,,-99.99,FreeWX 2.04,2013-02-04 21:58:00,
2013-02-04 15:03:00,40.5,21.4,25.13,SSW,201,7.0,11.2,46,0.00,,,-99.99,FreeWX 2.04,2013-02-04 22:03:00,
2013-02-04 15:08:00,40.5,21.4,25.13,SSW,204,8.0,12.1,46,0.00,,,-99.99,FreeWX 2.04,2013-02-04 22:08:00,
2013-02-04 15:13:00,40.5,22.8,25.13,SSW,199,8.0,12.1,49,0.00,,,-99.99,FreeWX 2.04,2013-02-04 22:13:00,
2013-02-04 15:18:00,39.9,22.3,25.13,SSW,194,9.0,13.4,49,0.00,,,-99.99,FreeWX 2.04,2013-02-04 22:18:00,
2013-02-04 15:23:00,39.9,22.3,25.13,SSW,195,9.0,12.1,49,0.00,,,-99.99,FreeWX 2.04,2013-02-04 22:23:00,
2013-02-04 15:28:00,40.1,23.0,25.13,SSW,192,9.0,14.8,50,0.00,,,-99.99,FreeWX 2.04,2013-02-04 22:28:00,
2013-02-04 15:33:00,39.9,22.8,25.13,South,190,9.0,13.4,50,0.00,,,-99.99,FreeWX 2.04,2013-02-04 22:33:00,
2013-02-04 15:38:00,39.9,22.8,25.13,South,189,9.0,12.5,50,0.00,,,-99.99,FreeWX 2.04,2013-02-04 22:38:00,
2013-02-04 15:43:00,39.9,22.8,25.13,South,191,9.0,12.1,50,0.00,,,-99.99,FreeWX 2.04,2013-02-04 22:43:00,
2013-02-04 15:48:00,40.1,23.0,25.13,South,184,8.0,10.5,50,0.00,,,-99.99,FreeWX 2.04,2013-02-04 22:48:00,
2013-02-04 15:53:00,39.7,22.6,25.13,South,186,9.0,12.5,50,0.00,,,-99.99,FreeWX 2.04,2013-02-04 22:53:00,
2013-02-04 15:58:00,39.6,22.5,25.13,SSW,192,9.0,11.6,50,0.00,,,-99.99,FreeWX 2.04,2013-02-04 22:58:00,
2013-02-04 16:03:00,39.9,22.8,25.13,SSW,194,9.0,13.4,50,0.00,,,-99.99,FreeWX 2.04,2013-02-04 23:03:00,
2013-02-04 16:08:00,39.7,23.2,25.13,SSW,193,9.0,12.1,51,0.00,,,-99.99,FreeWX 2.04,2013-02-04 23:08:00,
2013-02-04 16:13:00,39.4,22.8,25.13,SSW,193,9.0,13.9,51,0.00,,,-99.99,FreeWX 2.04,2013-02-04 23:13:00,
2013-02-04 16:18:00,39.4,23.2,25.13,SSW,201,10.0,13.4,52,0.00,,,-99.99,FreeWX 2.04,2013-02-04 23:18:00,
2013-02-04 16:23:00,39.4,23.7,25.13,SSW,201,8.0,11.2,53,0.00,,,-99.99,FreeWX 2.04,2013-02-04 23:23:00,
2013-02-04 16:28:00,39.6,23.9,25.13,SSW,198,7.0,11.2,53,0.00,,,-99.99,FreeWX 2.04,2013-02-04 23:28:00,
2013-02-04 16:33:00,39.0,23.4,25.13,South,182,7.0,9.2,53,0.00,,,-99.99,FreeWX 2.04,2013-02-04 23:33:00,
2013-02-04 16:38:00,39.0,24.3,25.13,SSE,166,6.0,9.6,55,0.00,,,-99.99,FreeWX 2.04,2013-02-04 23:38:00,
2013-02-04 16:43:00,38.8,23.7,25.13,SSE,152,5.0,7.8,54,0.00,,,-99.99,FreeWX 2.04,2013-02-04 23:43:00,
2013-02-04 16:48:00,38.5,23.7,25.13,SE,141,5.0,7.4,55,0.00,,,-99.99,FreeWX 2.04,2013-02-04 23:48:00,
2013-02-04 16:53:00,37.9,23.2,25.13,SE,136,5.0,7.4,55,0.00,,,-99.99,FreeWX 2.04,2013-02-04 23:53:00,
2013-02-04 16:58:00,37.6,23.7,25.13,SE,136,4.0,5.8,57,0.00,,,-99.99,FreeWX 2.04,2013-02-04 23:58:00,
2013-02-04 17:03:00,36.9,23.9,25.13,SSE,149,4.0,6.3,59,0.00,,,-99.99,FreeWX 2.04,2013-02-05 00:03:00,
2013-02-04 17:09:00,36.7,24.4,25.13,South,170,5.0,6.9,61,0.00,,,-99.99,FreeWX 2.04,2013-02-05 00:09:00,
2013-02-04 17:14:00,36.5,24.8,25.13,South,179,5.0,6.7,62,0.00,,,-99.99,FreeWX 2.04,2013-02-05 00:14:00,
2013-02-04 17:19:00,36.1,25.2,25.13,South,173,4.0,5.8,64,0.00,,,-99.99,FreeWX 2.04,2013-02-05 00:19:00,
2013-02-04 17:24:00,35.8,25.2,25.13,SSE,166,4.0,6.3,65,0.00,,,-99.99,FreeWX 2.04,2013-02-05 00:24:00,
2013-02-04 17:29:00,35.4,24.8,25.13,SSE,161,4.0,4.9,65,0.00,,,-99.99,FreeWX 2.04,2013-02-05 00:29:00,
2013-02-04 17:34:00,35.2,25.0,25.13,SSE,161,3.0,4.9,66,0.00,,,-99.99,FreeWX 2.04,2013-02-05 00:34:00,
2013-02-04 17:39:00,35.1,24.8,25.13,SSE,161,3.0,4.0,66,0.00,,,-99.99,FreeWX 2.04,2013-02-05 00:39:00,
2013-02-04 17:44:00,34.9,25.0,25.13,SSE,161,2.0,3.6,67,0.00,,,-99.99,FreeWX 2.04,2013-02-05 00:44:00,
2013-02-04 17:49:00,34.5,24.6,25.13,North,-999,0.0,0.0,67,0.00,,,-99.99,FreeWX 2.04,2013-02-05 00:49:00,
2013-02-04 17:54:00,34.3,25.0,25.13,North,-999,0.0,0.0,68,0.00,,,-99.99,FreeWX 2.04,2013-02-05 00:54:00,
2013-02-04 17:59:00,34.2,24.8,25.13,North,-999,0.0,3.1,68,0.00,,,-99.99,FreeWX 2.04,2013-02-05 00:59:00,
2013-02-04 18:04:00,34.0,25.0,25.16,North,-999,0.0,0.0,69,0.00,,,-99.99,FreeWX 2.04,2013-02-05 01:04:00,
2013-02-04 18:09:00,34.0,25.0,25.16,North,-999,0.0,0.0,69,0.00,,,-99.99,FreeWX 2.04,2013-02-05 01:09:00,
2013-02-04 18:14:00,34.0,25.2,25.16,North,-999,0.0,0.0,70,0.00,,,-99.99,FreeWX 2.04,2013-02-05 01:14:00,
2013-02-04 18:19:00,33.8,25.0,25.16,North,-999,0.0,0.0,70,0.00,,,-99.99,FreeWX 2.04,2013-02-05 01:19:00,
2013-02-04 18:24:00,34.0,25.5,25.16,North,-999,0.0,0.0,71,0.00,,,-99.99,FreeWX 2.04,2013-02-05 01:24:00,
2013-02-04 18:29:00,33.8,25.0,25.16,North,-999,0.0,0.0,70,0.00,,,-99.99,FreeWX 2.04,2013-02-05 01:29:00,
2013-02-04 18:34:00,33.1,24.4,25.16,North,-999,0.0,0.0,70,0.00,,,-99.99,FreeWX 2.04,2013-02-05 01:34:00,
2013-02-04 18:39:00,33.1,24.8,25.16,North,-999,0.0,0.0,71,0.00,,,-99.99,FreeWX 2.04,2013-02-05 01:39:00,
2013-02-04 18:44:00,32.9,24.6,25.16,North,-999,0.0,0.0,71,0.00,,,-99.99,FreeWX 2.04,2013-02-05 01:44:00,
2013-02-04 18:49:00,32.4,24.1,25.16,North,-999,0.0,0.0,71,0.00,,,-99.99,FreeWX 2.04,2013-02-05 01:49:00,
2013-02-04 18:54:00,32.0,24.1,25.16,North,-999,0.0,0.0,72,0.00,,,-99.99,FreeWX 2.04,2013-02-05 01:54:00,
2013-02-04 18:59:00,32.2,24.8,25.16,North,-999,0.0,2.7,74,0.00,,,-99.99,FreeWX 2.04,2013-02-05 01:59:00,
2013-02-04 19:04:00,33.1,26.1,25.16,North,-999,0.0,4.9,75,0.00,,,-99.99,FreeWX 2.04,2013-02-05 02:04:00,
2013-02-04 19:09:00,33.1,25.7,25.16,North,-999,0.0,0.0,74,0.00,,,-99.99,FreeWX 2.04,2013-02-05 02:09:00,
2013-02-04 19:14:00,32.9,25.5,25.16,North,-999,0.0,0.0,74,0.00,,,-99.99,FreeWX 2.04,2013-02-05 02:14:00,
2013-02-04 19:19:00,32.2,24.4,25.16,North,-999,0.0,2.7,73,0.00,,,-99.99,FreeWX 2.04,2013-02-05 02:19:00,
2013-02-04 19:24:00,31.1,23.5,25.16,North,-999,0.0,3.6,73,0.00,,,-99.99,FreeWX 2.04,2013-02-05 02:24:00,
2013-02-04 19:29:00,30.7,23.5,25.16,North,-999,0.0,0.0,74,0.00,,,-99.99,FreeWX 2.04,2013-02-05 02:29:00,
2013-02-04 19:34:00,30.6,23.5,25.16,North,-999,0.0,0.0,75,0.00,,,-99.99,FreeWX 2.04,2013-02-05 02:34:00,
2013-02-04 19:39:00,30.9,24.3,25.16,North,-999,0.0,0.0,76,0.00,,,-99.99,FreeWX 2.04,2013-02-05 02:39:00,
2013-02-04 19:49:00,31.3,25.0,25.13,North,-999,0.0,0.0,77,0.00,,,-99.99,FreeWX 2.04,2013-02-05 02:49:00,
2013-02-04 19:54:00,32.0,25.7,25.13,North,-999,0.0,0.0,77,0.00,,,-99.99,FreeWX 2.04,2013-02-05 02:54:00,
2013-02-04 19:59:00,32.4,25.7,25.13,North,-999,0.0,3.1,76,0.00,,,-99.99,FreeWX 2.04,2013-02-05 02:59:00,
2013-02-04 20:04:00,32.4,25.7,25.16,SE,130,1.0,4.9,76,0.00,,,-99.99,FreeWX 2.04,2013-02-05 03:04:00,
2013-02-04 20:09:00,33.4,26.8,25.16,SSW,200,2.0,6.7,76,0.00,,,-99.99,FreeWX 2.04,2013-02-05 03:09:00,
2013-02-04 20:14:00,34.0,25.9,25.16,SW,219,4.0,7.8,72,0.00,,,-99.99,FreeWX 2.04,2013-02-05 03:14:00,
2013-02-04 20:19:00,32.2,23.2,25.16,SSW,195,3.0,4.0,69,0.00,,,-99.99,FreeWX 2.04,2013-02-05 03:19:00,
2013-02-04 20:24:00,31.1,22.8,25.16,South,178,1.0,3.6,71,0.00,,,-99.99,FreeWX 2.04,2013-02-05 03:24:00,
2013-02-04 20:29:00,30.4,22.5,25.16,North,-999,0.0,2.7,72,0.00,,,-99.99,FreeWX 2.04,2013-02-05 03:29:00,
2013-02-04 20:34:00,30.6,23.4,25.16,North,-999,0.0,2.7,74,0.00,,,-99.99,FreeWX 2.04,2013-02-05 03:34:00,
2013-02-04 20:39:00,30.7,23.7,25.16,North,-999,0.0,2.7,75,0.00,,,-99.99,FreeWX 2.04,2013-02-05 03:39:00,
2013-02-04 20:44:00,30.4,23.7,25.16,North,-999,0.0,0.0,76,0.00,,,-99.99,FreeWX 2.04,2013-02-05 03:44:00,
2013-02-04 20:49:00,30.2,23.5,25.16,North,-999,0.0,0.0,76,0.00,,,-99.99,FreeWX 2.04,2013-02-05 03:49:00,
2013-02-04 20:54:00,30.7,24.4,25.16,North,-999,0.0,0.0,77,0.00,,,-99.99,FreeWX 2.04,2013-02-05 03:54:00,
2013-02-04 20:59:00,31.3,25.0,25.16,North,-999,0.0,4.5,77,0.00,,,-99.99,FreeWX 2.04,2013-02-05 03:59:00,
2013-02-04 21:04:00,30.9,24.6,25.16,West,274,3.0,6.7,77,0.00,,,-99.99,FreeWX 2.04,2013-02-05 04:04:00,
2013-02-04 21:09:00,30.0,23.7,25.16,North,354,3.0,4.5,77,0.00,,,-99.99,FreeWX 2.04,2013-02-05 04:09:00,
2013-02-04 21:14:00,29.8,23.9,25.16,North,3,1.0,2.7,78,0.00,,,-99.99,FreeWX 2.04,2013-02-05 04:14:00,
2013-02-04 21:19:00,30.0,24.6,25.16,North,3,1.0,3.1,80,0.00,,,-99.99,FreeWX 2.04,2013-02-05 04:19:00,
2013-02-04 21:24:00,31.5,26.1,25.16,North,3,2.0,4.5,80,0.00,,,-99.99,FreeWX 2.04,2013-02-05 04:24:00,
2013-02-04 21:30:00,31.6,25.9,25.16,North,3,2.0,3.1,79,0.00,,,-99.99,FreeWX 2.04,2013-02-05 04:30:00,
2013-02-04 21:35:00,30.0,23.7,25.16,North,3,1.0,4.5,77,0.00,,,-99.99,FreeWX 2.04,2013-02-05 04:35:00,
2013-02-04 21:40:00,29.3,23.0,25.16,North,3,2.0,3.1,77,0.00,,,-99.99,FreeWX 2.04,2013-02-05 04:40:00,
2013-02-04 21:45:00,28.9,23.0,25.16,North,-999,0.0,0.0,78,0.00,,,-99.99,FreeWX 2.04,2013-02-05 04:45:00,
2013-02-04 21:50:00,29.1,23.4,25.16,North,-999,0.0,3.6,79,0.00,,,-99.99,FreeWX 2.04,2013-02-05 04:50:00,
2013-02-04 21:55:00,30.0,24.3,25.16,North,-999,0.0,2.7,79,0.00,,,-99.99,FreeWX 2.04,2013-02-05 04:55:00,
2013-02-04 22:00:00,30.2,24.4,25.16,North,-999,0.0,2.7,79,0.00,,,-99.99,FreeWX 2.04,2013-02-05 05:00:00,
2013-02-04 22:05:00,30.4,24.6,25.16,North,-999,0.0,0.0,79,0.00,,,-99.99,FreeWX 2.04,2013-02-05 05:05:00,
2013-02-04 22:10:00,30.0,24.1,25.16,North,3,1.0,4.5,78,0.00,,,-99.99,FreeWX 2.04,2013-02-05 05:10:00,
2013-02-04 22:15:00,30.0,24.1,25.16,North,3,2.0,4.5,78,0.00,,,-99.99,FreeWX 2.04,2013-02-05 05:15:00,
2013-02-04 22:20:00,30.0,24.3,25.16,North,3,2.0,3.6,79,0.00,,,-99.99,FreeWX 2.04,2013-02-05 05:20:00,
2013-02-04 22:25:00,30.4,24.6,25.16,North,3,2.0,3.6,79,0.00,,,-99.99,FreeWX 2.04,2013-02-05 05:25:00,
2013-02-04 22:30:00,30.2,24.4,25.16,North,-999,0.0,0.0,79,0.00,,,-99.99,FreeWX 2.04,2013-02-05 05:30:00,
2013-02-04 22:35:00,29.1,23.2,25.16,North,-999,0.0,3.6,78,0.00,,,-99.99,FreeWX 2.04,2013-02-05 05:35:00,
2013-02-04 22:40:00,28.8,22.8,25.16,North,3,1.0,2.7,78,0.00,,,-99.99,FreeWX 2.04,2013-02-05 05:40:00,
2013-02-04 22:45:00,28.8,23.4,25.16,North,-999,0.0,0.0,80,0.00,,,-99.99,FreeWX 2.04,2013-02-05 05:45:00,
2013-02-04 22:50:00,29.5,24.1,25.16,North,-999,0.0,3.1,80,0.00,,,-99.99,FreeWX 2.04,2013-02-05 05:50:00,
2013-02-04 22:55:00,29.8,24.4,25.16,North,-999,0.0,2.7,80,0.00,,,-99.99,FreeWX 2.04,2013-02-05 05:55:00,
2013-02-04 23:00:00,29.7,23.9,25.16,North,3,2.0,5.4,79,0.00,,,-99.99,FreeWX 2.04,2013-02-05 06:00:00,
2013-02-04 23:05:00,29.7,23.7,25.16,North,3,3.0,4.9,78,0.00,,,-99.99,FreeWX 2.04,2013-02-05 06:05:00,
2013-02-04 23:10:00,30.4,24.6,25.16,North,3,2.0,4.5,79,0.00,,,-99.99,FreeWX 2.04,2013-02-05 06:10:00,
2013-02-04 23:15:00,29.7,23.4,25.16,North,3,1.0,3.6,77,0.00,,,-99.99,FreeWX 2.04,2013-02-05 06:15:00,
2013-02-04 23:20:00,29.7,23.4,25.16,North,-999,0.0,3.1,77,0.00,,,-99.99,FreeWX 2.04,2013-02-05 06:20:00,
2013-02-04 23:25:00,29.3,23.0,25.16,North,-999,0.0,2.7,77,0.00,,,-99.99,FreeWX 2.04,2013-02-05 06:25:00,
2013-02-04 23:30:00,29.8,23.5,25.16,North,-999,0.0,0.0,77,0.00,,,-99.99,FreeWX 2.04,2013-02-05 06:30:00,
2013-02-04 23:35:00,30.0,23.7,25.16,North,-999,0.0,2.7,77,0.00,,,-99.99,FreeWX 2.04,2013-02-05 06:35:00,
2013-02-04 23:40:00,30.0,23.7,25.16,North,3,1.0,3.6,77,0.00,,,-99.99,FreeWX 2.04,2013-02-05 06:40:00,
2013-02-04 23:45:00,30.6,23.9,25.16,North,3,3.0,4.5,76,0.00,,,-99.99,FreeWX 2.04,2013-02-05 06:45:00,
2013-02-04 23:50:00,30.7,23.5,25.16,North,3,3.0,4.9,74,0.00,,,-99.99,FreeWX 2.04,2013-02-05 06:50:00,
2013-02-04 23:55:00,30.4,22.1,25.16,North,3,4.0,4.9,71,0.00,,,-99.99,FreeWX 2.04,2013-02-05 06:55:00,